Dickinson Theodore Roosevelt Regional Airport
KDIK : now visible

Airfield :











YOU CAN JOIN US ON...

 
LOGIN :

Register | Disclaimer

   EN    FR    IT 

 









Legend :    VFR   Marginal VFR   IFR   Intensive IFR   Very Intensive IFR
Visi :
Ceiling :
>= 8 km
>= 3000ft
5 to 8 km
1000 to 3000 ft
1500m to 5 km
500 to 1000 ft
800 to 1500m
200 to 500 ft
< 800m
< 200 ft
Symbols :   Thunderstorms  Fog  Heavy snow  Heavy precipitations  Wind > 20 kt






- Airport Elevation : 2592 ft


KDIK - Dickinson Theodore Roosevelt Regional

CURRENT METAR :
  • 291256Z AUTO 27004KT 10SM CLR M06/M08 A2999 RMK AO2 SLP189 T10561078

EXPIRED METARs :
  • 291156Z AUTO 31003KT 10SM CLR M04/M07 A2999 RMK AO2 SLP184 T10441072 11028 21061 53004
  • 291056Z AUTO 20003KT 10SM FEW100 M04/M07 A2998 RMK AO2 SLP177 T10441067

TAF KDIK
Valid from the 29 at 12:00 until the 30 at 12:00 UTC


291123Z 2912/3012 VRB03KT P6SM VCFG BKN100
FM291400 VRB04KT P6SM VCFG OVC010
FM291800 VRB04KT P6SM BKN100
FM300100 VRB03KT P6SM BKN030
FM300400 VRB03KT 5SM BR BKN060
FM301000 19005KT 1SM BR OVC025



MET'MAP, your aeronautical weather chart ! - Copyright ORBIFLY December 2007 - Disclaimer

ORBIFLY MET'MAP TEAM :

Programming & Development : Alexandra Zaïnal
Concept & original design : Baudouin d'Aumeries
Assistance for programming : Marc-Olivier Méhu
Technical & hardware support : Manuel Goepfert

Contact : metmap@orbifly.com




SOURCES & CREDITS :

   NOAA       Earth
Advisory